Pagrindinis puslapis
METAR-TAF:

METAR-TAF

Oro uostai :

Umeo, Švedija

platuma: 63-48N, ilguma: 020-17E, Aukštis: 7 m

Dabartinis oras

Ataskaita buvo paskelbta 20 minutes, ne 09:20 UTC
Vėjas 10 kt iš Šiaurės Rytų, svyruoja nuo Šiaurės ir Rytų/Šiaurės Rytų
Temperatūra 15°C
Drėgmė 63%
Slėgis 1000 hPa
Matomumas 10 km arba daugiau
Su prošvaistėmis ne aukštis 4400 ft

METAR: ESNU 050920Z 04010KT 010V070 9999 BKN044 15/08 Q1000

Laikas: 11:40 (09:40 UTC)

Prognozė

Ataskaita buvo paskelbta 1 valandą ir 10 minutes, ne 08:30 UTC
Prognozė galioja nuo 05 metu 09 UTC su 05 metu 18 UTC
Vėjas 10 kt iš Šiaurės Rytų
Matomumas 10 km arba daugiau
Išsisklaidę debesys ne aukštis 1500 ft
Su prošvaistėmis ne aukštis 4000 ft
Laikinai
nuo 05 metu 09 UTC su 05 metu 13 UTC
Su prošvaistėmis ne aukštis 1200 ft
lietus
Tikimybė 40%
nuo 05 metu 13 UTC su 05 metu 18 UTC
Su prošvaistėmis ne aukštis 700 ft

TAF: ESNU 050830Z 0509/0518 04010KT 9999 SCT015 BKN040 TEMPO 0509/0513 RA BKN012 PROB40 0513/0518 BKN007

Orai ataskaitas ir orų prognozės (METAR, TAF).

turimą stotys yra geltonos ir raudonos taškus žemėlapyje.

Perkelti pele per norėdami pamatyti stoties vardą.

Tada spustelėkite, norėdami matyti oro stebėjimo ir prognozės.

Norėdami pakeisti žemėlapį: spustelėkite ant žalios mygtukų su juodo kryžiaus žemyn,; žalią mygtuką su brūkšneliu, jei norite nutolinti; arba žalių rodyklių gretimoms žemėlapius.


METAR-TAF: